Time;durP1;ratioP1;P1;durP2;ratioP2;P2;SDS_P1;SDS_P2;PMS_P1;PMS_P2;Temp;Humidity;BMP_temperature;BMP_pressure;BME280_temperature;BME280_humidity;BME280_pressure;Samples;Min_cycle;Max_cycle;Signal;HPM_P1;HPM_P2
2022/01/09 00:01:01;;;;;;;0.25;0.25;;;;;;;18.72;42.16;98424.69;5124199;27;20458;-36
2022/01/09 00:03:27;;;;;;;0.20;0.20;;;;;;;18.73;42.24;98411.72;5125864;27;20043;-34
2022/01/09 00:05:53;;;;;;;0.20;0.20;;;;;;;18.73;42.25;98415.28;5123913;27;20062;-34
2022/01/09 00:08:18;;;;;;;0.20;0.20;;;;;;;18.72;42.05;98410.91;5118644;27;20105;-34
2022/01/09 00:10:47;;;;;;;0.30;0.30;;;;;;;18.73;42.32;98409.75;5120400;27;20039;-35
2022/01/09 00:13:13;;;;;;;0.30;0.30;;;;;;;18.72;42.22;98410.91;5116115;27;20100;-34
2022/01/09 00:15:39;;;;;;;0.20;0.20;;;;;;;18.72;42.30;98401.84;5104621;28;20047;-34
2022/01/09 00:18:04;;;;;;;0.20;0.20;;;;;;;18.72;42.31;98396.31;5122507;27;20581;-34
2022/01/09 00:20:30;;;;;;;0.30;0.30;;;;;;;18.72;42.26;98399.88;5124680;27;20449;-34
2022/01/09 00:22:56;;;;;;;0.20;0.20;;;;;;;18.72;42.36;98393.56;5113324;27;20055;-34
2022/01/09 00:25:23;;;;;;;0.20;0.20;;;;;;;18.72;42.32;98393.56;5100727;27;20405;-36
2022/01/09 00:27:49;;;;;;;0.20;0.20;;;;;;;18.73;42.00;98398.72;5099903;28;20548;-34
2022/01/09 00:30:17;;;;;;;0.20;0.20;;;;;;;18.74;42.33;98399.56;5103521;28;20052;-34
2022/01/09 00:32:42;;;;;;;0.20;0.20;;;;;;;18.72;42.22;98399.06;5108669;27;20371;-34
2022/01/09 00:35:09;;;;;;;0.20;0.20;;;;;;;18.72;42.39;98393.56;5084106;28;20096;-34
2022/01/09 00:37:34;;;;;;;0.20;0.20;;;;;;;18.73;42.34;98392.41;5098304;27;20466;-35
2022/01/09 00:40:00;;;;;;;0.20;0.20;;;;;;;18.72;42.18;98393.56;5118525;27;20039;-36
2022/01/09 00:42:26;;;;;;;0.25;0.25;;;;;;;18.73;42.29;98386.91;5117847;27;20376;-34
2022/01/09 00:44:52;;;;;;;0.20;0.20;;;;;;;18.72;42.16;98382.53;5097733;28;20047;-35
2022/01/09 00:47:18;;;;;;;0.20;0.20;;;;;;;18.72;42.15;98379.78;5114805;27;20054;-36
2022/01/09 00:49:43;;;;;;;0.20;0.20;;;;;;;18.72;42.20;98388.06;5122997;27;20051;-34
2022/01/09 00:52:09;;;;;;;0.20;0.20;;;;;;;18.72;42.18;98385.28;5117034;27;20054;-34
2022/01/09 00:54:35;;;;;;;0.25;0.25;;;;;;;18.72;42.18;98379.78;5099537;27;20044;-34
2022/01/09 00:57:00;;;;;;;0.20;0.20;;;;;;;18.72;42.33;98382.53;5134643;27;20047;-34
2022/01/09 00:59:26;;;;;;;0.20;0.20;;;;;;;18.72;42.26;98380.59;5124176;27;20050;-36
2022/01/09 01:01:52;;;;;;;0.20;0.20;;;;;;;18.72;42.15;98379.78;5119074;27;20043;-34
2022/01/09 01:04:17;;;;;;;0.20;0.20;;;;;;;18.71;42.32;98380.94;5120505;27;21466;-35
2022/01/09 01:06:43;;;;;;;0.20;0.20;;;;;;;18.72;42.38;98380.59;5113190;27;20031;-34
2022/01/09 01:09:09;;;;;;;0.20;0.20;;;;;;;18.71;42.45;98376.22;5122305;27;20039;-36
2022/01/09 01:11:34;;;;;;;0.20;0.20;;;;;;;18.71;42.17;98370.72;5118247;27;20314;-35
2022/01/09 01:14:00;;;;;;;0.20;0.20;;;;;;;18.70;42.16;98371.88;5102876;27;20393;-34
2022/01/09 01:16:26;;;;;;;0.20;0.20;;;;;;;18.71;42.27;98369.91;5117538;27;20047;-34
2022/01/09 01:18:55;;;;;;;0.20;0.20;;;;;;;18.71;42.34;98375.41;5120026;27;20501;-36
2022/01/09 01:21:23;;;;;;;0.20;0.20;;;;;;;18.71;42.12;98386.44;5123891;27;20039;-34
2022/01/09 01:23:50;;;;;;;0.20;0.20;;;;;;;18.71;42.12;98384.50;5117576;27;20066;-34
2022/01/09 01:26:15;;;;;;;0.20;0.20;;;;;;;18.71;42.34;98391.97;5123285;27;20052;-35
2022/01/09 01:28:41;;;;;;;0.20;0.20;;;;;;;18.70;42.43;98385.66;5118642;27;20078;-34
2022/01/09 01:31:07;;;;;;;0.20;0.20;;;;;;;18.70;42.19;98382.88;5129036;27;20039;-34
2022/01/09 01:33:32;;;;;;;0.20;0.20;;;;;;;18.71;42.31;98389.22;5104202;28;20435;-34
2022/01/09 01:35:58;;;;;;;0.20;0.20;;;;;;;18.70;42.28;98399.44;5119976;27;20047;-35
2022/01/09 01:38:24;;;;;;;0.20;0.20;;;;;;;18.71;42.22;98411.25;5122360;27;20044;-34
2022/01/09 01:40:49;;;;;;;0.30;0.30;;;;;;;18.71;42.32;98414.00;5103302;28;20564;-36
2022/01/09 01:43:15;;;;;;;0.20;0.20;;;;;;;18.69;42.20;98408.00;5097505;27;20046;-35
2022/01/09 01:45:41;;;;;;;0.20;0.20;;;;;;;18.70;42.18;98427.00;5121446;27;20075;-35
2022/01/09 01:48:07;;;;;;;0.20;0.20;;;;;;;18.69;42.13;98430.88;5125108;27;20065;-34
2022/01/09 01:50:37;;;;;;;0.20;0.20;;;;;;;18.71;42.35;98444.34;5122454;27;20043;-34
2022/01/09 01:53:06;;;;;;;0.20;0.20;;;;;;;18.70;42.34;98448.25;5116653;27;20051;-34
2022/01/09 01:55:36;;;;;;;0.20;0.20;;;;;;;18.70;42.42;98457.31;5122105;27;20034;-34
2022/01/09 01:58:03;;;;;;;0.20;0.20;;;;;;;18.71;42.26;98460.88;5103653;27;20070;-34
2022/01/09 02:00:28;;;;;;;0.20;0.20;;;;;;;18.69;42.36;98469.47;5104295;28;20040;-34
2022/01/09 02:02:54;;;;;;;0.20;0.20;;;;;;;18.71;42.40;98477.44;5122611;27;20458;-34
2022/01/09 02:05:20;;;;;;;0.20;0.20;;;;;;;18.70;42.26;98479.38;5122139;27;20036;-34
2022/01/09 02:07:46;;;;;;;0.30;0.30;;;;;;;18.71;42.23;98496.72;5120126;27;20043;-36
2022/01/09 02:10:11;;;;;;;0.20;0.20;;;;;;;18.69;42.33;98502.56;5125719;27;20043;-34
2022/01/09 02:12:38;;;;;;;0.20;0.20;;;;;;;18.69;42.34;98513.59;5099961;27;20039;-35
2022/01/09 02:15:25;;;;;;;0.20;0.20;;;;;;;18.70;42.26;98526.25;5116740;27;20048;-34
2022/01/09 02:17:51;;;;;;;0.20;0.20;;;;;;;18.71;42.40;98538.09;5100301;27;20062;-34
2022/01/09 02:20:17;;;;;;;0.30;0.30;;;;;;;18.69;42.18;98545.84;5102535;28;20122;-34
2022/01/09 02:22:42;;;;;;;0.20;0.20;;;;;;;18.70;42.33;98561.28;5115504;27;20091;-37
2022/01/09 02:25:10;;;;;;;0.30;0.30;;;;;;;18.69;42.26;98560.44;5118792;27;20046;-34
2022/01/09 02:27:35;;;;;;;0.20;0.20;;;;;;;18.71;42.09;98568.41;5085283;27;20078;-37
2022/01/09 02:30:02;;;;;;;0.30;0.30;;;;;;;18.70;42.24;98580.59;5120741;27;20124;-34
2022/01/09 02:32:27;;;;;;;0.30;0.30;;;;;;;18.69;42.14;98595.47;5102582;27;20053;-35
2022/01/09 02:34:53;;;;;;;0.20;0.20;;;;;;;18.71;42.41;98604.25;5123975;27;20043;-35
2022/01/09 02:37:18;;;;;;;0.20;0.20;;;;;;;18.70;42.39;98619.19;5117650;27;20073;-34
2022/01/09 02:39:44;;;;;;;0.20;0.20;;;;;;;18.70;42.41;98622.75;5121936;27;20039;-35
2022/01/09 02:42:18;;;;;;;0.20;0.20;;;;;;;18.70;42.43;98630.22;5116408;27;20039;-35
2022/01/09 02:44:43;;;;;;;0.20;0.20;;;;;;;18.68;42.17;98627.75;5101955;28;20036;-39
2022/01/09 02:47:10;;;;;;;0.20;0.20;;;;;;;18.69;42.46;98636.81;5121448;27;20079;-35
2022/01/09 02:49:35;;;;;;;0.20;0.20;;;;;;;18.69;42.40;98645.91;5124667;27;20046;-36
2022/01/09 02:52:09;;;;;;;0.20;0.20;;;;;;;18.70;42.13;98655.84;5123413;27;20042;-34
2022/01/09 02:57:20;;;;;;;0.20;0.20;;;;;;;18.70;42.41;98663.28;5104585;27;20059;-34
2022/01/09 02:59:46;;;;;;;0.20;0.20;;;;;;;18.67;42.27;98677.72;5125060;27;20055;-34
2022/01/09 03:02:12;;;;;;;0.20;0.20;;;;;;;18.69;42.34;98684.50;5120336;27;20051;-34
2022/01/09 03:04:37;;;;;;;0.20;0.20;;;;;;;18.69;42.23;98684.50;5118512;27;20044;-35
2022/01/09 03:07:04;;;;;;;0.20;0.20;;;;;;;18.69;42.27;98684.50;5125176;27;20062;-34
2022/01/09 03:09:29;;;;;;;0.20;0.20;;;;;;;18.68;42.42;98693.91;5121391;27;20047;-34
2022/01/09 03:11:55;;;;;;;0.20;0.20;;;;;;;18.69;42.32;98700.22;5121274;27;20047;-35
2022/01/09 03:14:21;;;;;;;0.20;0.20;;;;;;;18.69;42.37;98714.00;5120618;27;20043;-37
2022/01/09 03:16:46;;;;;;;0.20;0.20;;;;;;;18.68;42.35;98713.22;5121389;27;20482;-35
2022/01/09 03:19:12;;;;;;;0.20;0.20;;;;;;;18.68;42.33;98717.91;5118682;27;20390;-34
2022/01/09 03:21:38;;;;;;;0.20;0.20;;;;;;;18.68;42.47;98727.00;5122790;27;20397;-34
2022/01/09 03:24:04;;;;;;;0.20;0.20;;;;;;;18.68;42.30;98728.94;5123615;27;20368;-33
2022/01/09 03:26:29;;;;;;;0.20;0.20;;;;;;;18.67;42.30;98749.38;5120422;27;20048;-35
2022/01/09 03:28:55;;;;;;;0.20;0.20;;;;;;;18.66;42.42;98748.59;5123005;27;20044;-34
2022/01/09 03:31:21;;;;;;;0.20;0.20;;;;;;;18.67;42.52;98755.72;5123277;27;20164;-34
2022/01/09 03:33:47;;;;;;;0.20;0.20;;;;;;;18.67;42.36;98772.25;5100096;28;20398;-34
2022/01/09 03:36:12;;;;;;;0.20;0.20;;;;;;;18.67;42.26;98772.25;5119151;27;20050;-35
2022/01/09 03:38:38;;;;;;;0.20;0.20;;;;;;;18.69;42.25;98781.00;5121718;27;20039;-35
2022/01/09 03:41:03;;;;;;;0.20;0.20;;;;;;;18.67;42.46;98797.06;5119199;27;20481;-34
2022/01/09 03:43:29;;;;;;;0.20;0.20;;;;;;;18.68;42.33;98797.88;5122002;27;20746;-35
2022/01/09 03:45:55;;;;;;;0.20;0.20;;;;;;;18.67;42.25;98804.53;5119940;27;20046;-34
2022/01/09 03:48:20;;;;;;;0.20;0.20;;;;;;;18.68;42.44;98811.66;5122187;27;20050;-36
2022/01/09 03:50:51;;;;;;;0.20;0.20;;;;;;;18.68;42.37;98808.91;5120202;27;20043;-34
2022/01/09 03:53:16;;;;;;;0.20;0.20;;;;;;;18.68;42.41;98841.97;5123635;27;20040;-34
2022/01/09 03:55:42;;;;;;;0.20;0.20;;;;;;;18.68;42.52;98822.69;5120493;27;20050;-34
2022/01/09 03:58:08;;;;;;;0.20;0.20;;;;;;;18.68;42.26;98822.69;5121299;27;20039;-35
2022/01/09 04:00:33;;;;;;;0.20;0.20;;;;;;;18.67;42.45;98832.91;5122695;27;20039;-35
2022/01/09 04:02:59;;;;;;;0.20;0.20;;;;;;;18.66;42.17;98839.56;5098840;27;20039;-34
2022/01/09 04:05:25;;;;;;;0.20;0.20;;;;;;;18.67;42.20;98841.19;5126737;27;20136;-35
2022/01/09 04:07:51;;;;;;;0.20;0.20;;;;;;;18.67;42.43;98852.19;5120679;27;20055;-35
2022/01/09 04:10:41;;;;;;;0.20;0.20;;;;;;;18.67;42.39;98867.94;5120909;27;20493;-34
2022/01/09 04:13:07;;;;;;;0.20;0.20;;;;;;;18.66;42.29;98875.41;5117888;27;20575;-36
2022/01/09 04:15:33;;;;;;;0.20;0.20;;;;;;;18.66;42.38;98875.41;5117790;27;20047;-35
2022/01/09 04:18:00;;;;;;;0.20;0.20;;;;;;;18.66;42.51;98880.91;5115628;27;20511;-36
2022/01/09 04:20:28;;;;;;;0.30;0.30;;;;;;;18.66;42.35;98889.19;5115711;27;20047;-35
2022/01/09 04:22:54;;;;;;;0.20;0.20;;;;;;;18.66;42.40;98899.41;5120324;27;20179;-36
2022/01/09 04:25:20;;;;;;;0.20;0.20;;;;;;;18.67;42.24;98903.78;5102692;27;20067;-37
2022/01/09 04:27:47;;;;;;;0.20;0.20;;;;;;;18.66;42.54;98902.97;5104562;28;20053;-34
2022/01/09 04:30:13;;;;;;;0.20;0.20;;;;;;;18.66;42.59;98908.50;5122130;27;20043;-34
2022/01/09 04:32:39;;;;;;;0.20;0.20;;;;;;;18.66;42.34;98918.72;5102879;28;20065;-34
2022/01/09 04:35:05;;;;;;;0.20;0.20;;;;;;;18.67;42.29;98932.16;5113929;27;20044;-36
2022/01/09 04:37:33;;;;;;;0.20;0.20;;;;;;;18.65;42.31;98942.72;5119762;27;21071;-35
2022/01/09 04:39:59;;;;;;;0.20;0.20;;;;;;;18.67;42.35;98954.22;5119281;27;20044;-34
2022/01/09 04:42:32;;;;;;;0.20;0.20;;;;;;;18.66;42.28;98962.81;5116471;27;20092;-34
2022/01/09 04:44:58;;;;;;;0.20;0.20;;;;;;;18.66;42.29;98965.59;5118803;27;20042;-34
2022/01/09 04:47:24;;;;;;;0.20;0.20;;;;;;;18.67;42.27;98970.75;5121791;27;20039;-34
2022/01/09 04:49:50;;;;;;;0.20;0.20;;;;;;;18.65;42.44;98978.56;5122275;27;20470;-35
2022/01/09 04:52:19;;;;;;;0.20;0.20;;;;;;;18.66;42.38;98976.59;5117876;27;20058;-34
2022/01/09 04:54:46;;;;;;;0.20;0.20;;;;;;;18.66;42.26;98984.88;5105892;27;20086;-34
2022/01/09 04:57:12;;;;;;;0.20;0.20;;;;;;;18.66;42.55;98993.97;5118435;27;20047;-34
2022/01/09 04:59:38;;;;;;;0.20;0.20;;;;;;;18.66;42.39;99004.19;5104909;27;20073;-34
2022/01/09 05:02:04;;;;;;;0.20;0.20;;;;;;;18.65;42.53;99017.16;5123907;27;20478;-35
2022/01/09 05:04:29;;;;;;;0.20;0.20;;;;;;;18.66;42.56;99023.47;5118146;27;20042;-34
2022/01/09 05:06:55;;;;;;;0.20;0.20;;;;;;;18.66;42.48;99026.25;5102739;28;20047;-34
2022/01/09 05:09:21;;;;;;;0.20;0.20;;;;;;;18.66;42.33;99040.84;5120292;27;20035;-35
2022/01/09 05:11:46;;;;;;;0.20;0.20;;;;;;;18.66;42.39;99051.06;5123204;27;20047;-34
2022/01/09 05:14:12;;;;;;;0.20;0.20;;;;;;;18.65;42.49;99054.91;5115568;27;20039;-34
2022/01/09 05:16:42;;;;;;;0.30;0.30;;;;;;;18.65;42.36;99060.44;5121050;27;20051;-34
2022/01/09 05:19:16;;;;;;;0.20;0.20;;;;;;;18.65;42.48;99064.03;5115789;27;20360;-34
2022/01/09 05:21:42;;;;;;;0.20;0.20;;;;;;;18.64;42.48;99056.88;5115799;27;20039;-34
2022/01/09 05:24:08;;;;;;;0.20;0.20;;;;;;;18.64;42.37;99078.94;5127973;27;20394;-35
2022/01/09 05:26:33;;;;;;;0.20;0.20;;;;;;;18.66;42.39;99084.13;5115178;27;20052;-35
2022/01/09 05:29:05;;;;;;;0.20;0.20;;;;;;;18.66;42.34;99095.97;5125335;27;20074;-34
2022/01/09 05:31:30;;;;;;;0.20;0.20;;;;;;;18.65;42.39;99099.88;5125297;27;20448;-34
2022/01/09 05:33:56;;;;;;;0.20;0.20;;;;;;;18.64;42.39;99103.75;5121918;27;20048;-34
2022/01/09 05:36:22;;;;;;;0.30;0.30;;;;;;;18.65;42.38;99104.53;5121307;27;20047;-34
2022/01/09 05:38:47;;;;;;;0.20;0.20;;;;;;;18.66;42.35;99125.50;5117171;27;20053;-35
2022/01/09 05:41:13;;;;;;;0.20;0.20;;;;;;;18.65;42.49;99129.38;5117244;27;20082;-36
2022/01/09 05:43:40;;;;;;;0.20;0.20;;;;;;;18.65;42.39;99140.38;5119217;27;20068;-34
2022/01/09 05:46:06;;;;;;;0.30;0.30;;;;;;;18.66;42.48;99147.56;5122445;27;20507;-34
2022/01/09 05:48:32;;;;;;;0.20;0.20;;;;;;;18.64;42.32;99150.63;5119107;27;20328;-38
2022/01/09 05:50:57;;;;;;;0.20;0.20;;;;;;;18.66;42.58;99164.09;5122871;27;20046;-34
2022/01/09 05:53:23;;;;;;;0.20;0.20;;;;;;;18.64;42.28;99164.41;5097827;28;20093;-35
2022/01/09 05:55:49;;;;;;;0.20;0.20;;;;;;;18.64;42.18;99167.16;5127816;27;20040;-35
2022/01/09 05:58:14;;;;;;;0.20;0.20;;;;;;;18.65;42.33;99176.22;5118139;27;20043;-35
2022/01/09 06:00:40;;;;;;;0.20;0.20;;;;;;;18.65;42.41;99181.75;5129221;27;20098;-34
2022/01/09 06:03:06;;;;;;;0.20;0.20;;;;;;;18.65;42.35;99179.00;5118912;27;20093;-34
2022/01/09 06:05:32;;;;;;;0.30;0.30;;;;;;;18.65;42.30;99190.03;5116830;27;20047;-35
2022/01/09 06:07:57;;;;;;;0.20;0.20;;;;;;;18.65;42.44;99193.63;5116048;27;20483;-34
2022/01/09 06:10:23;;;;;;;0.20;0.20;;;;;;;18.65;42.50;99192.78;5123669;27;20104;-34
2022/01/09 06:12:49;;;;;;;0.30;0.30;;;;;;;18.66;42.49;99199.94;5128455;27;20496;-34
2022/01/09 06:15:14;;;;;;;0.20;0.20;;;;;;;18.65;42.32;99199.13;5122625;27;20042;-34
2022/01/09 06:17:42;;;;;;;0.20;0.20;;;;;;;18.65;42.39;99207.41;5124487;27;20051;-35
2022/01/09 06:20:10;;;;;;;0.20;0.20;;;;;;;18.64;42.49;99214.03;5104726;28;20044;-34
2022/01/09 06:22:36;;;;;;;0.20;0.20;;;;;;;18.65;42.58;99212.91;5103846;27;20081;-36
2022/01/09 06:25:02;;;;;;;0.20;0.20;;;;;;;18.64;42.50;99221.50;5108604;27;21165;-34
2022/01/09 06:27:28;;;;;;;0.20;0.20;;;;;;;18.64;42.53;99216.78;5120464;27;21410;-34
2022/01/09 06:29:53;;;;;;;0.20;0.20;;;;;;;18.65;42.59;99232.22;5122510;27;20534;-35
2022/01/09 06:32:19;;;;;;;0.20;0.20;;;;;;;18.65;42.41;99228.63;5130484;27;20039;-35
2022/01/09 06:34:45;;;;;;;0.20;0.20;;;;;;;18.65;42.50;99236.91;5102563;28;20394;-34
2022/01/09 06:37:12;;;;;;;0.20;0.20;;;;;;;18.63;42.41;99231.72;5124462;27;20403;-35
2022/01/09 06:39:39;;;;;;;0.20;0.20;;;;;;;18.64;42.55;99238.84;5123009;27;20043;-34
2022/01/09 06:42:05;;;;;;;0.20;0.20;;;;;;;18.65;42.47;99253.44;5122031;27;20035;-34
2022/01/09 06:44:31;;;;;;;0.20;0.20;;;;;;;18.64;42.38;99249.88;5122835;27;20042;-34
2022/01/09 06:46:57;;;;;;;0.20;0.20;;;;;;;18.64;42.41;99263.66;5124948;27;20421;-35
2022/01/09 06:49:22;;;;;;;0.20;0.20;;;;;;;18.64;42.66;99266.41;5119094;27;20666;-35
2022/01/09 06:51:48;;;;;;;0.20;0.20;;;;;;;18.66;42.58;99274.38;5121648;27;20104;-34
2022/01/09 06:54:14;;;;;;;0.30;0.30;;;;;;;18.65;42.53;99275.50;5122630;27;20126;-34
2022/01/09 06:56:41;;;;;;;0.20;0.20;;;;;;;18.64;42.53;99282.97;5124540;27;20083;-34
2022/01/09 06:59:06;;;;;;;0.30;0.30;;;;;;;18.62;42.59;99285.22;5129241;27;20079;-34
2022/01/09 07:01:32;;;;;;;0.20;0.20;;;;;;;18.64;42.45;99296.75;5131029;27;20055;-34
2022/01/09 07:03:58;;;;;;;0.20;0.20;;;;;;;18.63;42.57;99295.13;5119949;27;20047;-34
2022/01/09 07:06:23;;;;;;;0.20;0.20;;;;;;;18.64;42.48;99307.78;5120388;27;20490;-35
2022/01/09 07:08:49;;;;;;;0.20;0.20;;;;;;;18.66;42.33;99311.03;5122161;27;20104;-34
2022/01/09 07:11:15;;;;;;;0.30;0.30;;;;;;;18.65;42.58;99314.94;5126510;27;20568;-37
2022/01/09 07:13:41;;;;;;;0.20;0.20;;;;;;;18.64;42.40;99324.31;5102152;27;20059;-35
2022/01/09 07:16:07;;;;;;;0.30;0.30;;;;;;;18.65;42.61;99333.41;5130350;27;20047;-35
2022/01/09 07:18:32;;;;;;;0.20;0.20;;;;;;;18.64;42.55;99332.59;5118589;27;20039;-34
2022/01/09 07:20:58;;;;;;;0.20;0.20;;;;;;;18.65;42.41;99338.91;5103544;27;20081;-34
2022/01/09 07:23:24;;;;;;;0.25;0.25;;;;;;;18.65;42.41;99339.75;5124377;27;20043;-34
2022/01/09 07:25:50;;;;;;;0.28;0.28;;;;;;;18.64;42.78;99343.63;5124351;27;20047;-35
2022/01/09 07:28:16;;;;;;;0.20;0.20;;;;;;;18.65;42.39;99353.53;5084079;28;20123;-34
2022/01/09 07:30:41;;;;;;;0.20;0.20;;;;;;;18.64;42.48;99349.13;5128940;27;20127;-34
2022/01/09 07:33:07;;;;;;;0.28;0.28;;;;;;;18.65;42.36;99358.22;5122520;27;20035;-34
2022/01/09 07:35:34;;;;;;;0.28;0.28;;;;;;;18.65;42.40;99360.97;5120740;27;20130;-34
2022/01/09 07:38:00;;;;;;;0.30;0.30;;;;;;;18.64;42.57;99364.88;5099012;28;20087;-34
2022/01/09 07:40:25;;;;;;;0.25;0.25;;;;;;;18.64;42.40;99373.94;5116902;27;20519;-35
2022/01/09 07:42:51;;;;;;;0.20;0.20;;;;;;;18.64;42.49;99371.19;5101235;27;20148;-35
2022/01/09 07:45:22;;;;;;;0.20;0.20;;;;;;;18.64;42.48;99379.47;5123622;27;20046;-35
2022/01/09 07:47:48;;;;;;;0.20;0.20;;;;;;;18.65;42.54;99383.88;5120060;27;20101;-35
2022/01/09 07:50:14;;;;;;;0.30;0.30;;;;;;;18.64;42.45;99396.00;5088255;28;20471;-34
2022/01/09 07:52:40;;;;;;;0.30;0.30;;;;;;;18.65;42.64;99394.06;5124592;27;20442;-35
2022/01/09 07:55:07;;;;;;;0.20;0.20;;;;;;;18.66;42.48;99398.47;5084653;27;20051;-34
2022/01/09 07:57:33;;;;;;;0.30;0.30;;;;;;;18.64;42.52;99407.03;5101266;28;20132;-35
2022/01/09 08:00:00;;;;;;;0.30;0.30;;;;;;;18.65;42.57;99408.69;5123547;27;20370;-35
2022/01/09 08:02:26;;;;;;;0.20;0.20;;;;;;;18.65;42.65;99416.13;5128590;27;20054;-35
2022/01/09 08:04:51;;;;;;;0.20;0.20;;;;;;;18.65;42.61;99414.19;5128854;27;20038;-34
2022/01/09 08:07:17;;;;;;;0.30;0.30;;;;;;;18.64;42.65;99425.53;5125843;27;20055;-34
2022/01/09 08:09:45;;;;;;;0.30;0.30;;;;;;;18.65;42.65;99429.91;5121094;27;20047;-35
2022/01/09 08:12:14;;;;;;;0.20;0.20;;;;;;;18.66;42.71;99426.03;5119197;27;20673;-35
2022/01/09 08:14:41;;;;;;;0.20;0.20;;;;;;;18.65;42.46;99436.25;5120625;27;20045;-40
2022/01/09 08:17:07;;;;;;;0.20;0.20;;;;;;;18.65;42.59;99436.25;5108278;27;20073;-35
2022/01/09 08:19:33;;;;;;;0.20;0.20;;;;;;;18.65;42.61;99450.06;5105174;28;21372;-34
2022/01/09 08:21:58;;;;;;;0.20;0.20;;;;;;;18.65;42.63;99447.28;5124060;27;20769;-35
2022/01/09 08:24:24;;;;;;;0.20;0.20;;;;;;;18.65;42.64;99446.44;5121690;27;20050;-34
2022/01/09 08:26:50;;;;;;;0.20;0.20;;;;;;;18.64;42.65;99458.63;5126073;27;20486;-34
2022/01/09 08:29:16;;;;;;;0.30;0.30;;;;;;;18.64;42.55;99456.66;5102380;28;20043;-34
2022/01/09 08:31:42;;;;;;;0.30;0.30;;;;;;;18.65;42.61;99460.22;5121840;27;20071;-35
2022/01/09 08:34:08;;;;;;;0.20;0.20;;;;;;;18.64;42.79;99462.19;5120404;27;20100;-34
2022/01/09 08:36:34;;;;;;;0.30;0.30;;;;;;;18.64;42.49;99459.41;5123016;27;20052;-35
2022/01/09 08:39:00;;;;;;;0.30;0.30;;;;;;;18.65;42.65;99469.34;5098753;28;20038;-36
2022/01/09 08:41:26;;;;;;;0.30;0.30;;;;;;;18.64;42.54;99464.94;5119102;27;20469;-34
2022/01/09 08:43:51;;;;;;;0.20;0.20;;;;;;;18.65;42.50;99471.25;5117379;27;20081;-34
2022/01/09 08:46:17;;;;;;;0.30;0.30;;;;;;;18.66;42.59;99473.72;5119940;27;20046;-34
2022/01/09 08:48:43;;;;;;;0.20;0.20;;;;;;;18.64;42.44;99470.44;5122837;27;20067;-34
2022/01/09 08:51:08;;;;;;;0.30;0.30;;;;;;;18.65;42.75;99476.78;5122253;27;20058;-34
2022/01/09 08:53:36;;;;;;;0.20;0.20;;;;;;;18.65;42.54;99477.63;5116967;27;20394;-36
2022/01/09 08:56:03;;;;;;;0.20;0.20;;;;;;;18.64;42.48;99481.47;5124722;27;20429;-34
2022/01/09 08:58:30;;;;;;;0.20;0.20;;;;;;;18.65;42.79;99485.91;5116856;27;20043;-34
2022/01/09 09:00:56;;;;;;;0.20;0.20;;;;;;;18.65;42.69;99494.16;5119817;27;20809;-34
2022/01/09 09:03:23;;;;;;;0.20;0.20;;;;;;;18.66;42.55;99494.97;5100464;28;20070;-34
2022/01/09 09:05:49;;;;;;;0.20;0.20;;;;;;;18.64;42.59;99495.28;5123282;27;20074;-35
2022/01/09 09:08:14;;;;;;;0.20;0.20;;;;;;;18.64;42.54;99511.81;5099404;28;20506;-36
2022/01/09 09:10:40;;;;;;;0.20;0.20;;;;;;;18.64;42.61;99516.53;5118221;27;20096;-34
2022/01/09 09:13:06;;;;;;;0.20;0.20;;;;;;;18.65;42.56;99513.47;5121993;27;20043;-34
2022/01/09 09:15:32;;;;;;;0.20;0.20;;;;;;;18.67;42.64;99521.41;5108730;27;20187;-34
2022/01/09 09:17:57;;;;;;;0.30;0.30;;;;;;;18.65;42.64;99515.38;5121238;27;20605;-34
2022/01/09 09:20:24;;;;;;;0.30;0.30;;;;;;;18.65;42.50;99518.13;5129141;27;20075;-34
2022/01/09 09:22:50;;;;;;;0.25;0.25;;;;;;;18.65;42.43;99523.66;5102669;27;20074;-34
2022/01/09 09:25:16;;;;;;;0.30;0.30;;;;;;;18.66;42.53;99530.81;5117620;27;20657;-36
2022/01/09 09:27:42;;;;;;;0.20;0.20;;;;;;;18.66;42.62;99536.34;5102117;27;20184;-34
2022/01/09 09:30:10;;;;;;;0.20;0.20;;;;;;;18.64;42.63;99544.09;5103135;27;20084;-35
2022/01/09 09:32:36;;;;;;;;;;;;;;;18.64;42.72;99558.69;5119647;27;20054;-34
2022/01/09 09:35:03;;;;;;;0.30;0.30;;;;;;;18.65;42.52;99559.50;5123328;27;20269;-36
2022/01/09 09:37:28;;;;;;;0.30;0.30;;;;;;;18.64;42.63;99555.94;5100486;27;20059;-36
2022/01/09 09:39:55;;;;;;;0.20;0.20;;;;;;;18.65;42.83;99563.09;5119366;27;20039;-34
2022/01/09 09:42:21;;;;;;;0.30;0.30;;;;;;;18.65;42.63;99563.09;5119693;27;20046;-35
2022/01/09 09:44:46;;;;;;;0.20;0.20;;;;;;;18.65;42.72;99571.38;5105011;27;20040;-34
2022/01/09 09:47:12;;;;;;;0.30;0.30;;;;;;;18.66;42.52;99566.66;5117600;27;20082;-38
2022/01/09 09:49:38;;;;;;;0.22;0.22;;;;;;;18.65;42.50;99571.38;5121285;27;20509;-34
2022/01/09 09:52:06;;;;;;;0.30;0.30;;;;;;;18.64;42.58;99580.75;5122145;27;20465;-37
2022/01/09 09:54:32;;;;;;;0.20;0.20;;;;;;;18.64;42.72;99583.50;5124859;27;20074;-34
2022/01/09 09:56:57;;;;;;;0.20;0.20;;;;;;;18.65;42.58;99576.88;5124714;27;20047;-36
2022/01/09 09:59:25;;;;;;;0.20;0.20;;;;;;;18.66;42.58;99585.97;5125753;27;20046;-34
2022/01/09 10:01:51;;;;;;;0.20;0.20;;;;;;;18.65;42.65;99593.44;5121464;27;20044;-35
2022/01/09 10:04:17;;;;;;;0.20;0.20;;;;;;;18.66;42.58;99599.75;5100338;27;20405;-36
2022/01/09 10:06:47;;;;;;;0.20;0.20;;;;;;;18.66;42.73;99605.28;5087320;27;20065;-35
2022/01/09 10:09:16;;;;;;;0.20;0.20;;;;;;;18.65;42.69;99612.75;5123443;27;20274;-34
2022/01/09 10:11:47;;;;;;;0.25;0.25;;;;;;;18.65;42.62;99617.41;5111723;27;20401;-34
2022/01/09 10:14:16;;;;;;;0.20;0.20;;;;;;;18.64;42.58;99616.59;5119239;27;20482;-35
2022/01/09 10:16:43;;;;;;;0.20;0.20;;;;;;;18.65;42.55;99617.41;5120638;27;20039;-34
2022/01/09 10:19:09;;;;;;;0.20;0.20;;;;;;;18.65;42.71;99629.28;5123493;27;20057;-34
2022/01/09 10:21:34;;;;;;;0.20;0.20;;;;;;;18.65;42.61;99623.78;5123897;27;20410;-34
2022/01/09 10:24:06;;;;;;;0.20;0.20;;;;;;;18.66;42.68;99630.91;5120472;27;20421;-34
2022/01/09 10:26:40;;;;;;;0.20;0.20;;;;;;;18.66;42.63;99633.66;5124952;27;20039;-37
2022/01/09 10:29:07;;;;;;;0.20;0.20;;;;;;;18.65;42.59;99643.06;5120274;27;20036;-34
2022/01/09 10:31:51;;;;;;;0.30;0.30;;;;;;;18.66;42.68;99647.47;5120832;27;20043;-34
2022/01/09 10:34:17;;;;;;;0.30;0.30;;;;;;;18.65;42.84;99648.59;5118839;27;20070;-36
2022/01/09 10:36:44;;;;;;;0.20;0.20;;;;;;;18.66;42.48;99658.47;5116648;27;20044;-35
2022/01/09 10:39:13;;;;;;;0.30;0.30;;;;;;;18.66;42.57;99660.44;5104101;27;20413;-34
2022/01/09 10:41:56;;;;;;;0.20;0.20;;;;;;;18.67;42.64;99659.28;5104886;27;20039;-37
2022/01/09 10:44:27;;;;;;;0.20;0.20;;;;;;;18.66;42.60;99654.91;5099409;27;20039;-37
2022/01/09 10:46:59;;;;;;;0.20;0.20;;;;;;;18.66;42.67;99661.25;5121604;27;20215;-36
2022/01/09 10:49:39;;;;;;;0.20;0.20;;;;;;;18.66;42.62;99675.03;5103435;27;20530;-35
2022/01/09 10:52:27;;;;;;;0.20;0.20;;;;;;;18.66;42.67;99671.47;5120042;27;20039;-36
2022/01/09 10:54:54;;;;;;;0.20;0.20;;;;;;;18.65;42.64;99667.88;5119770;27;20054;-34
2022/01/09 10:57:22;;;;;;;0.20;0.20;;;;;;;18.66;42.54;99675.03;5102318;27;20100;-35
2022/01/09 10:59:48;;;;;;;0.20;0.20;;;;;;;18.65;42.73;99673.41;5109810;27;20143;-35
2022/01/09 11:02:14;;;;;;;0.20;0.20;;;;;;;18.66;42.67;99679.72;5118682;27;20059;-35
2022/01/09 11:04:42;;;;;;;0.30;0.30;;;;;;;18.67;42.63;99684.13;5119125;27;20047;-34
2022/01/09 11:07:09;;;;;;;0.30;0.30;;;;;;;18.67;42.89;99695.16;5124273;27;20394;-36
2022/01/09 11:09:36;;;;;;;0.20;0.20;;;;;;;18.66;42.54;99688.00;5122821;27;20386;-35
2022/01/09 11:12:03;;;;;;;0.20;0.20;;;;;;;18.66;42.73;99696.28;5105839;28;20062;-35
2022/01/09 11:14:34;;;;;;;0.20;0.20;;;;;;;18.66;42.87;99691.56;5119857;27;20084;-34
2022/01/09 11:17:03;;;;;;;0.20;0.20;;;;;;;18.66;42.70;99701.78;5122562;27;20398;-34
2022/01/09 11:19:29;;;;;;;0.20;0.20;;;;;;;18.66;42.70;99705.38;5118095;27;20048;-34
2022/01/09 11:22:01;;;;;;;0.20;0.20;;;;;;;18.67;42.63;99697.91;5103509;28;20481;-36
2022/01/09 11:25:07;;;;;;;0.20;0.20;;;;;;;18.67;42.52;99695.16;5099637;27;20054;-36
2022/01/09 11:27:54;;;;;;;0.22;0.22;;;;;;;18.66;42.81;99688.81;5107179;27;20065;-34
2022/01/09 11:30:29;;;;;;;0.20;0.20;;;;;;;18.66;42.63;99697.09;5119236;27;20436;-36
2022/01/09 11:33:25;;;;;;;0.20;0.20;;;;;;;18.66;42.61;99696.28;5121173;27;20470;-34
2022/01/09 11:36:14;;;;;;;0.30;0.30;;;;;;;18.67;42.85;99709.75;5119597;27;20050;-35